createdAt,value
2023-04-29T00:00:15.900Z,0.93
2023-04-29T00:02:44.903Z,1.00
2023-04-29T00:05:13.885Z,0.80
2023-04-29T00:07:43.156Z,0.77
2023-04-29T00:10:14.908Z,0.60
2023-04-29T00:12:45.081Z,1.07
2023-04-29T00:15:13.578Z,0.77
2023-04-29T00:17:42.112Z,0.70
2023-04-29T00:20:12.206Z,0.97
2023-04-29T00:22:40.812Z,0.67
2023-04-29T00:25:10.905Z,0.97
2023-04-29T00:27:39.849Z,0.80
2023-04-29T00:30:11.050Z,1.13
2023-04-29T00:32:39.548Z,1.03
2023-04-29T00:35:08.634Z,0.50
2023-04-29T00:37:37.394Z,1.07
2023-04-29T00:40:06.751Z,1.07
2023-04-29T00:42:35.925Z,1.17
2023-04-29T00:45:05.144Z,1.13
2023-04-29T00:47:36.231Z,0.90
2023-04-29T00:50:05.400Z,0.90
2023-04-29T00:52:35.368Z,1.60
2023-04-29T00:55:05.705Z,0.73
2023-04-29T00:57:35.148Z,1.17
2023-04-29T01:00:04.191Z,0.97
2023-04-29T01:02:32.812Z,0.73
2023-04-29T01:05:02.729Z,0.83
2023-04-29T01:07:43.829Z,1.10
2023-04-29T01:10:16.698Z,1.10
2023-04-29T01:12:48.197Z,0.83
2023-04-29T01:15:23.773Z,0.80
2023-04-29T01:17:57.477Z,1.13
2023-04-29T01:20:31.867Z,1.03
2023-04-29T01:23:00.228Z,0.83
2023-04-29T01:25:30.235Z,0.60
2023-04-29T01:28:06.755Z,0.63
2023-04-29T01:30:45.693Z,0.70
2023-04-29T01:33:22.607Z,0.60
2023-04-29T01:36:09.926Z,1.23
2023-04-29T01:38:46.084Z,0.70
2023-04-29T01:41:19.357Z,0.90
2023-04-29T01:43:51.601Z,1.17
2023-04-29T01:46:20.656Z,1.13
2023-04-29T01:48:49.123Z,1.20
2023-04-29T01:51:17.647Z,1.10
2023-04-29T01:53:46.396Z,0.83
2023-04-29T01:56:16.491Z,0.53
2023-04-29T01:58:44.944Z,1.33
2023-04-29T02:01:13.465Z,0.70
2023-04-29T02:03:42.579Z,0.50
2023-04-29T02:06:11.222Z,1.47
2023-04-29T02:08:39.687Z,1.20
2023-04-29T02:11:08.251Z,0.90
2023-04-29T02:13:38.308Z,1.00
2023-04-29T02:16:10.690Z,0.77
2023-04-29T02:18:40.248Z,0.77
2023-04-29T02:21:09.072Z,0.90
2023-04-29T02:23:37.838Z,1.53
2023-04-29T02:26:07.504Z,0.73
2023-04-29T02:28:37.682Z,1.10
2023-04-29T02:31:06.240Z,0.70
2023-04-29T02:33:34.924Z,0.83
2023-04-29T02:36:03.318Z,1.93
2023-04-29T02:38:31.822Z,1.03
2023-04-29T02:41:00.318Z,1.40
2023-04-29T02:43:31.075Z,1.33
2023-04-29T02:46:01.506Z,1.03
2023-04-29T02:48:30.121Z,1.00
2023-04-29T02:50:58.563Z,1.10
2023-04-29T02:53:27.146Z,1.07
2023-04-29T02:55:58.793Z,0.73
2023-04-29T02:58:27.341Z,1.10
2023-04-29T03:00:56.116Z,1.97
2023-04-29T03:03:26.334Z,0.80
2023-04-29T03:05:55.056Z,1.00
2023-04-29T03:08:23.554Z,1.03
2023-04-29T03:10:52.015Z,0.80
2023-04-29T03:13:20.969Z,0.93
2023-04-29T03:15:50.105Z,1.63
2023-04-29T03:18:18.904Z,1.23
2023-04-29T03:20:48.731Z,0.87
2023-04-29T03:23:17.218Z,0.90
2023-04-29T03:25:45.711Z,1.70
2023-04-29T03:28:15.171Z,1.17
2023-04-29T03:30:43.678Z,1.60
2023-04-29T03:33:12.230Z,1.10
2023-04-29T03:35:40.670Z,1.07
2023-04-29T03:38:10.573Z,2.67
2023-04-29T03:40:39.328Z,4.93
2023-04-29T03:43:09.297Z,4.13
2023-04-29T03:45:38.065Z,4.20
2023-04-29T03:48:08.242Z,5.47
2023-04-29T03:50:37.828Z,5.30
2023-04-29T03:53:06.711Z,4.53
2023-04-29T03:55:36.766Z,4.73
2023-04-29T03:58:05.278Z,3.03
2023-04-29T04:00:34.063Z,3.33
2023-04-29T04:03:05.300Z,2.87
2023-04-29T04:05:34.517Z,3.30
2023-04-29T04:08:02.958Z,2.63
2023-04-29T04:10:31.436Z,1.97
2023-04-29T04:13:01.257Z,1.53
2023-04-29T04:15:29.776Z,1.50
2023-04-29T04:17:58.348Z,1.90
2023-04-29T04:20:26.963Z,2.17
2023-04-29T04:22:55.970Z,1.77
2023-04-29T04:25:24.426Z,1.67
2023-04-29T04:27:52.789Z,1.50
2023-04-29T04:30:22.674Z,1.93
2023-04-29T04:32:51.389Z,1.10
2023-04-29T04:35:19.944Z,1.00
2023-04-29T04:37:48.548Z,1.07
2023-04-29T04:40:17.221Z,2.27
2023-04-29T04:42:45.620Z,1.33
2023-04-29T04:45:14.912Z,2.33
2023-04-29T04:47:44.974Z,1.70
2023-04-29T04:50:13.442Z,1.70
2023-04-29T04:52:42.785Z,1.80
2023-04-29T04:55:13.822Z,1.73
2023-04-29T04:57:43.384Z,2.03
2023-04-29T05:00:13.188Z,1.20
2023-04-29T05:02:41.930Z,1.80
2023-04-29T05:05:12.081Z,1.80
2023-04-29T05:07:40.505Z,1.40
2023-04-29T05:10:09.904Z,1.63
2023-04-29T05:12:40.971Z,2.97
2023-04-29T05:15:10.261Z,0.97
2023-04-29T05:17:38.929Z,1.97
2023-04-29T05:20:08.969Z,2.47
2023-04-29T05:22:38.679Z,1.87
2023-04-29T05:25:08.074Z,3.17
2023-04-29T05:27:36.531Z,2.00
2023-04-29T05:30:05.537Z,2.50
2023-04-29T05:32:34.001Z,2.40
2023-04-29T05:35:03.057Z,1.70
2023-04-29T05:37:36.223Z,2.73
2023-04-29T05:40:07.166Z,2.07
2023-04-29T05:42:35.810Z,2.23
2023-04-29T05:45:04.288Z,1.97
2023-04-29T05:47:32.770Z,2.23
2023-04-29T05:50:01.683Z,1.70
2023-04-29T05:52:30.133Z,1.73
2023-04-29T05:55:23.197Z,1.47
2023-04-29T05:57:51.728Z,1.40
2023-04-29T06:00:20.510Z,1.27
2023-04-29T06:02:58.255Z,1.97
2023-04-29T06:05:28.005Z,1.50
2023-04-29T06:07:57.126Z,1.67
2023-04-29T06:10:27.430Z,1.70
2023-04-29T06:12:55.970Z,1.63
2023-04-29T06:15:24.439Z,1.33
2023-04-29T06:17:53.624Z,1.37
2023-04-29T06:20:23.764Z,1.37
2023-04-29T06:22:52.123Z,1.90
2023-04-29T06:25:20.480Z,2.13
2023-04-29T06:27:51.973Z,1.70
2023-04-29T06:30:20.600Z,1.00
2023-04-29T06:32:49.297Z,1.77
2023-04-29T06:35:18.290Z,1.53
2023-04-29T06:37:48.259Z,1.20
2023-04-29T06:40:17.384Z,1.23
2023-04-29T06:42:55.324Z,1.07
2023-04-29T06:45:25.121Z,1.10
2023-04-29T06:47:53.472Z,2.60
2023-04-29T06:50:21.914Z,2.13
2023-04-29T06:52:50.302Z,1.17
2023-04-29T06:55:18.751Z,1.60
2023-04-29T06:57:47.064Z,1.07
2023-04-29T07:00:19.532Z,1.40
2023-04-29T07:02:47.978Z,1.37
2023-04-29T07:05:16.556Z,0.70
2023-04-29T07:07:45.118Z,1.40
2023-04-29T07:10:13.446Z,1.40
2023-04-29T07:12:43.765Z,1.20
2023-04-29T07:15:47.568Z,2.13
2023-04-29T07:18:17.306Z,1.90
2023-04-29T07:20:46.487Z,1.27
2023-04-29T07:23:14.896Z,1.40
2023-04-29T07:25:43.292Z,1.13
2023-04-29T07:28:11.681Z,1.50
2023-04-29T07:31:08.888Z,1.40
2023-04-29T07:33:39.029Z,1.13
2023-04-29T07:36:07.851Z,1.20
2023-04-29T07:38:37.086Z,1.77
2023-04-29T07:41:05.698Z,1.00
2023-04-29T07:43:34.083Z,1.23
2023-04-29T07:46:02.496Z,1.00
2023-04-29T07:48:30.904Z,1.50
2023-04-29T07:51:00.748Z,1.33
2023-04-29T07:53:29.079Z,2.00
2023-04-29T07:55:57.672Z,1.30
2023-04-29T07:58:25.998Z,1.70
2023-04-29T08:00:54.263Z,1.07
2023-04-29T08:03:22.945Z,2.00
2023-04-29T08:05:53.790Z,2.20
2023-04-29T08:08:23.618Z,1.73
2023-04-29T08:10:51.931Z,1.30
2023-04-29T08:13:20.374Z,2.30
2023-04-29T08:15:48.691Z,1.40
2023-04-29T08:18:16.991Z,1.53
2023-04-29T08:20:45.244Z,1.27
2023-04-29T08:23:13.543Z,1.47
2023-04-29T08:25:45.104Z,1.20
2023-04-29T08:28:13.438Z,1.73
2023-04-29T08:30:42.400Z,0.90
2023-04-29T08:33:13.066Z,1.30
2023-04-29T08:35:42.116Z,1.40
2023-04-29T08:38:11.111Z,1.93
2023-04-29T08:40:45.883Z,1.90
2023-04-29T08:43:15.474Z,1.83
2023-04-29T08:45:44.696Z,0.90
2023-04-29T08:48:13.947Z,1.43
2023-04-29T08:50:43.415Z,1.33
2023-04-29T08:53:13.203Z,1.17
2023-04-29T08:55:45.786Z,1.13
2023-04-29T08:58:15.340Z,0.90
2023-04-29T09:00:44.562Z,1.83
2023-04-29T09:03:21.098Z,1.83
2023-04-29T09:05:54.052Z,1.47
2023-04-29T09:08:24.053Z,1.07
2023-04-29T09:10:54.071Z,1.10
2023-04-29T09:13:26.806Z,1.20
2023-04-29T09:15:55.420Z,1.07
2023-04-29T09:18:49.655Z,1.53
2023-04-29T09:21:22.270Z,1.40
2023-04-29T09:23:52.481Z,0.87
2023-04-29T09:26:22.857Z,1.23
2023-04-29T09:29:08.622Z,1.13
2023-04-29T09:31:38.612Z,0.93
2023-04-29T09:34:07.227Z,1.03
2023-04-29T09:36:45.708Z,0.80
2023-04-29T09:39:15.522Z,0.70
2023-04-29T09:42:00.389Z,1.30
2023-04-29T09:44:32.989Z,1.40
2023-04-29T09:47:04.284Z,1.57
2023-04-29T09:49:35.914Z,1.23
2023-04-29T09:52:05.807Z,0.90
2023-04-29T09:54:36.536Z,1.60
2023-04-29T09:57:07.378Z,1.23
2023-04-29T09:59:37.681Z,0.93
2023-04-29T10:02:11.743Z,1.53
2023-04-29T10:04:43.666Z,1.00
2023-04-29T10:07:17.006Z,1.23
2023-04-29T10:09:48.044Z,1.10
2023-04-29T10:12:20.000Z,1.03
2023-04-29T10:15:04.858Z,1.43
2023-04-29T10:17:44.699Z,1.03
2023-04-29T10:20:16.418Z,1.20
2023-04-29T10:22:48.708Z,0.90
2023-04-29T10:25:18.622Z,1.20
2023-04-29T10:27:50.490Z,1.33
2023-04-29T10:30:20.079Z,1.10
2023-04-29T10:32:51.721Z,1.13
2023-04-29T10:35:23.807Z,1.70
2023-04-29T10:37:53.122Z,1.40
2023-04-29T10:40:29.534Z,1.42
2023-04-29T10:42:59.825Z,1.55
2023-04-29T10:45:31.421Z,1.13
2023-04-29T10:48:16.546Z,1.25
2023-04-29T10:51:03.601Z,1.77
2023-04-29T10:53:32.306Z,1.50
2023-04-29T10:56:06.858Z,1.43
2023-04-29T10:58:43.191Z,1.00
2023-04-29T11:01:15.574Z,1.00
2023-04-29T11:03:49.263Z,1.70
2023-04-29T11:06:17.989Z,1.33
2023-04-29T11:08:46.360Z,1.30
2023-04-29T11:11:15.936Z,1.00
2023-04-29T11:13:49.266Z,1.90
2023-04-29T11:16:17.767Z,1.37
2023-04-29T11:19:08.114Z,1.20
2023-04-29T11:21:37.235Z,1.80
2023-04-29T11:24:07.440Z,1.30
2023-04-29T11:26:39.335Z,1.00
2023-04-29T11:29:10.629Z,1.42
2023-04-29T11:31:39.596Z,1.13
2023-04-29T11:34:08.462Z,2.37
2023-04-29T11:36:37.378Z,1.52
2023-04-29T11:39:06.109Z,1.60
2023-04-29T11:41:36.002Z,1.60
2023-04-29T11:44:05.107Z,1.80
2023-04-29T11:46:36.042Z,1.80
2023-04-29T11:49:04.387Z,1.52
2023-04-29T11:51:34.863Z,1.70
2023-04-29T11:54:03.439Z,1.43
2023-04-29T11:56:32.008Z,2.03
2023-04-29T11:59:04.316Z,1.67
2023-04-29T12:01:34.233Z,1.80
2023-04-29T12:04:03.436Z,1.65
2023-04-29T12:06:32.508Z,1.00
2023-04-29T12:09:01.890Z,1.60
2023-04-29T12:11:30.287Z,1.20
2023-04-29T12:14:01.126Z,2.00
2023-04-29T12:16:30.727Z,1.38
2023-04-29T12:19:01.324Z,1.88
2023-04-29T12:21:29.755Z,1.70
2023-04-29T12:24:01.731Z,1.55
2023-04-29T12:26:30.341Z,1.80
2023-04-29T12:29:00.130Z,1.80
2023-04-29T12:31:49.440Z,1.90
2023-04-29T12:35:38.941Z,2.13
2023-04-29T12:38:09.363Z,1.75
2023-04-29T12:40:37.735Z,2.08
2023-04-29T12:46:27.595Z,2.97
2023-04-29T12:48:57.516Z,2.53
2023-04-29T12:51:26.722Z,1.70
2023-04-29T12:53:59.600Z,1.50
2023-04-29T12:56:28.031Z,2.08
2023-04-29T12:58:56.414Z,2.58
2023-04-29T13:01:24.740Z,1.90
2023-04-29T13:03:53.926Z,1.73
2023-04-29T13:06:23.179Z,1.85
2023-04-29T13:08:52.455Z,2.03
2023-04-29T13:11:22.241Z,2.60
2023-04-29T13:13:50.671Z,1.60
2023-04-29T13:16:20.214Z,2.17
2023-04-29T13:19:01.785Z,1.70
2023-04-29T13:21:36.794Z,1.30
2023-04-29T13:24:06.697Z,1.13
2023-04-29T13:26:36.551Z,1.05
2023-04-29T13:29:04.857Z,1.27
2023-04-29T13:31:33.271Z,1.30
2023-04-29T13:34:01.706Z,1.17
2023-04-29T13:36:30.396Z,1.20
2023-04-29T13:38:59.908Z,1.40
2023-04-29T13:41:28.764Z,2.13
2023-04-29T13:43:58.737Z,2.38
2023-04-29T13:46:31.799Z,1.00
2023-04-29T13:52:16.870Z,2.72
2023-04-29T13:57:55.437Z,1.00
2023-04-29T13:59:55.338Z,1.52
2023-04-29T14:05:29.092Z,2.78
2023-04-29T14:07:57.460Z,1.60
2023-04-29T14:10:25.907Z,1.38
2023-04-29T14:13:19.886Z,1.30
2023-04-29T14:15:49.973Z,1.40
2023-04-29T14:18:18.289Z,1.10
2023-04-29T14:20:46.805Z,1.25
2023-04-29T14:23:15.324Z,1.33
2023-04-29T14:25:43.642Z,1.45
2023-04-29T14:28:12.828Z,1.25
2023-04-29T14:30:46.108Z,1.73
2023-04-29T14:33:59.083Z,1.40
2023-04-29T14:36:28.347Z,1.40
2023-04-29T14:38:56.873Z,1.23
2023-04-29T14:41:25.366Z,1.67
2023-04-29T14:43:53.666Z,1.30
2023-04-29T14:46:22.773Z,1.48
2023-04-29T14:48:51.286Z,1.60
2023-04-29T14:51:21.017Z,1.50
2023-04-29T14:53:49.688Z,2.40
2023-04-29T14:56:18.558Z,1.67
2023-04-29T14:58:46.948Z,1.55
2023-04-29T15:01:15.331Z,1.70
2023-04-29T15:03:44.958Z,1.23
2023-04-29T15:06:16.435Z,1.45
2023-04-29T15:08:47.060Z,1.33
2023-04-29T15:11:15.649Z,1.30
2023-04-29T15:13:44.213Z,1.10
2023-04-29T15:16:12.588Z,1.05
2023-04-29T15:18:44.094Z,1.20
2023-04-29T15:21:13.905Z,1.02
2023-04-29T15:23:42.396Z,1.10
2023-04-29T15:26:12.174Z,0.98
2023-04-29T15:28:40.654Z,1.20
2023-04-29T15:31:09.009Z,1.02
2023-04-29T15:33:37.451Z,0.70
2023-04-29T15:36:06.792Z,1.10
2023-04-29T15:38:35.176Z,1.20
2023-04-29T15:41:04.064Z,1.17
2023-04-29T15:43:36.043Z,1.40
2023-04-29T15:46:04.580Z,1.83
2023-04-29T15:48:32.996Z,1.58
2023-04-29T15:51:01.380Z,1.27
2023-04-29T15:53:29.853Z,1.65
2023-04-29T15:55:58.244Z,1.83
2023-04-29T15:58:26.853Z,1.50
2023-04-29T16:00:56.616Z,1.50
2023-04-29T16:03:25.244Z,2.03
2023-04-29T16:05:53.678Z,2.37
2023-04-29T16:08:22.030Z,3.57
2023-04-29T16:10:50.766Z,2.80
2023-04-29T16:13:19.176Z,2.90
2023-04-29T16:15:47.656Z,2.37
2023-04-29T16:18:17.947Z,2.40
2023-04-29T16:20:46.317Z,1.60
2023-04-29T16:23:14.658Z,1.97
2023-04-29T16:25:43.652Z,1.57
2023-04-29T16:28:12.114Z,2.90
2023-04-29T16:30:40.476Z,2.97
2023-04-29T16:33:11.922Z,4.47
2023-04-29T16:35:42.007Z,3.97
2023-04-29T16:38:10.537Z,2.97
2023-04-29T16:40:38.987Z,1.97
2023-04-29T16:43:07.516Z,1.30
2023-04-29T16:45:35.879Z,1.30
2023-04-29T16:48:04.283Z,1.17
2023-04-29T16:50:36.072Z,0.70
2023-04-29T16:53:06.270Z,1.00
2023-04-29T16:55:35.371Z,1.27
2023-04-29T16:58:05.309Z,1.00
2023-04-29T17:00:33.724Z,1.30
2023-04-29T17:03:02.379Z,1.00
2023-04-29T17:05:30.971Z,1.07
2023-04-29T17:07:59.444Z,1.37
2023-04-29T17:10:29.303Z,1.30
2023-04-29T17:12:57.643Z,1.63
2023-04-29T17:15:26.066Z,1.33
2023-04-29T17:17:55.209Z,1.40
2023-04-29T17:20:23.667Z,1.83
2023-04-29T17:22:52.430Z,1.20
2023-04-29T17:25:22.597Z,0.97
2023-04-29T17:27:52.270Z,1.90
2023-04-29T17:30:20.731Z,1.20
2023-04-29T17:32:49.981Z,1.53
2023-04-29T17:35:18.325Z,1.23
2023-04-29T17:37:47.665Z,0.90
2023-04-29T17:40:15.989Z,0.83
2023-04-29T17:42:44.438Z,1.77
2023-04-29T17:45:14.625Z,1.67
2023-04-29T17:47:42.984Z,1.30
2023-04-29T17:50:11.936Z,0.90
2023-04-29T17:52:40.372Z,1.23
2023-04-29T17:55:09.583Z,1.00
2023-04-29T17:57:38.364Z,1.30
2023-04-29T18:00:07.918Z,1.07
2023-04-29T18:02:39.768Z,1.00
2023-04-29T18:05:08.676Z,1.17
2023-04-29T18:07:37.006Z,1.03
2023-04-29T18:10:06.135Z,1.73
2023-04-29T18:12:49.140Z,1.93
2023-04-29T18:15:17.598Z,2.80
2023-04-29T18:17:47.470Z,4.57
2023-04-29T18:20:15.794Z,4.33
2023-04-29T18:22:44.208Z,4.33
2023-04-29T18:25:12.693Z,4.40
2023-04-29T18:27:42.880Z,4.90
2023-04-29T18:30:12.365Z,4.27
2023-04-29T18:32:41.149Z,4.40
2023-04-29T18:35:14.488Z,3.87
2023-04-29T18:37:43.280Z,3.33
2023-04-29T18:40:12.427Z,3.93
2023-04-29T18:42:40.755Z,3.30
2023-04-29T18:45:10.128Z,3.03
2023-04-29T18:47:38.590Z,2.53
2023-04-29T18:50:08.445Z,3.83
2023-04-29T18:53:03.762Z,2.23
2023-04-29T18:58:14.360Z,2.93
2023-04-29T19:00:42.730Z,3.00
2023-04-29T19:03:11.611Z,2.43
2023-04-29T19:05:40.016Z,3.20
2023-04-29T19:08:10.270Z,2.53
2023-04-29T19:10:38.601Z,2.43
2023-04-29T19:13:07.087Z,2.90
2023-04-29T19:15:35.602Z,2.23
2023-04-29T19:18:05.924Z,3.00
2023-04-29T19:20:34.443Z,2.70
2023-04-29T19:23:05.153Z,2.77
2023-04-29T19:25:37.193Z,2.17
2023-04-29T19:28:06.212Z,2.80
2023-04-29T19:30:34.923Z,2.07
2023-04-29T19:33:03.300Z,2.57
2023-04-29T19:35:31.656Z,2.23
2023-04-29T19:38:00.047Z,1.63
2023-04-29T19:40:28.362Z,3.23
2023-04-29T19:42:58.100Z,3.33
2023-04-29T19:45:26.540Z,3.17
2023-04-29T19:47:55.423Z,2.93
2023-04-29T19:50:24.138Z,3.17
2023-04-29T19:52:52.499Z,3.10
2023-04-29T19:55:20.934Z,3.37
2023-04-29T19:57:50.674Z,2.70
2023-04-29T20:00:20.516Z,2.60
2023-04-29T20:02:51.449Z,2.40
2023-04-29T20:05:20.091Z,3.53
2023-04-29T20:07:48.699Z,3.08
2023-04-29T20:10:17.228Z,2.10
2023-04-29T20:12:45.700Z,2.77
2023-04-29T20:15:14.017Z,2.47
2023-04-29T20:17:43.820Z,2.07
2023-04-29T20:20:12.531Z,2.00
2023-04-29T20:22:40.900Z,2.07
2023-04-29T20:25:09.838Z,2.10
2023-04-29T20:27:38.324Z,2.17
2023-04-29T20:30:08.964Z,2.77
2023-04-29T20:32:37.910Z,2.67
2023-04-29T20:35:08.283Z,3.33
2023-04-29T20:37:36.550Z,2.17
2023-04-29T20:40:06.530Z,2.17
2023-04-29T20:42:35.008Z,4.60
2023-04-29T20:45:05.879Z,3.10
2023-04-29T20:47:35.407Z,3.20
2023-04-29T20:50:04.581Z,3.93
2023-04-29T20:52:34.792Z,3.10
2023-04-29T20:55:03.320Z,3.53
2023-04-29T20:57:32.703Z,3.40
2023-04-29T21:00:01.094Z,3.10
2023-04-29T21:02:29.496Z,2.90
2023-04-29T21:04:57.900Z,2.17
2023-04-29T21:07:26.453Z,3.47
2023-04-29T21:09:56.509Z,3.63
2023-04-29T21:12:25.917Z,4.03
2023-04-29T21:14:54.277Z,2.93
2023-04-29T21:17:22.607Z,3.00
2023-04-29T21:19:50.969Z,5.10
2023-04-29T21:22:19.344Z,3.10
2023-04-29T21:24:47.697Z,2.60
2023-04-29T21:27:17.452Z,2.50
2023-04-29T21:29:45.807Z,3.73
2023-04-29T21:32:14.690Z,3.60
2023-04-29T21:34:43.218Z,4.30
2023-04-29T21:37:11.575Z,3.70
2023-04-29T21:39:40.391Z,3.60
2023-04-29T21:42:09.756Z,3.87
2023-04-29T21:44:39.799Z,4.43
2023-04-29T21:47:09.235Z,3.27
2023-04-29T21:49:37.701Z,3.43
2023-04-29T21:52:06.227Z,3.63
2023-04-29T21:54:34.543Z,3.53
2023-04-29T21:57:03.065Z,3.47
2023-04-29T21:59:34.413Z,2.93
2023-04-29T22:02:14.446Z,3.43
2023-04-29T22:04:42.950Z,3.63
2023-04-29T22:07:11.248Z,3.80
2023-04-29T22:09:39.600Z,3.90
2023-04-29T22:12:07.929Z,3.63
2023-04-29T22:14:36.210Z,4.60
2023-04-29T22:17:06.101Z,2.77
2023-04-29T22:19:34.500Z,2.50
2023-04-29T22:22:02.759Z,3.13
2023-04-29T22:24:31.087Z,3.10
2023-04-29T22:26:59.378Z,3.47
2023-04-29T22:29:27.649Z,4.53
2023-04-29T22:31:56.240Z,2.60
2023-04-29T22:34:26.139Z,3.10
2023-04-29T22:36:54.641Z,2.77
2023-04-29T22:39:22.914Z,3.87
2023-04-29T22:41:51.168Z,2.97
2023-04-29T22:44:19.474Z,2.57
2023-04-29T22:46:47.905Z,3.43
2023-04-29T22:49:16.192Z,3.90
2023-04-29T22:51:45.869Z,3.00
2023-04-29T22:54:14.179Z,3.33
2023-04-29T22:56:42.522Z,2.53
2023-04-29T22:59:11.000Z,2.13
2023-04-29T23:01:39.367Z,2.43
2023-04-29T23:04:07.728Z,3.37
2023-04-29T23:06:36.301Z,2.23
2023-04-29T23:09:06.223Z,3.03
2023-04-29T23:11:34.967Z,3.07
2023-04-29T23:14:03.250Z,4.17
2023-04-29T23:16:31.631Z,3.03
2023-04-29T23:18:59.932Z,2.10
2023-04-29T23:21:28.311Z,2.83
2023-04-29T23:23:56.673Z,2.20
2023-04-29T23:26:26.423Z,1.83
2023-04-29T23:28:54.757Z,2.70
2023-04-29T23:31:23.252Z,2.37
2023-04-29T23:33:51.635Z,2.27
2023-04-29T23:36:19.980Z,2.37
2023-04-29T23:38:48.271Z,2.47
2023-04-29T23:41:16.599Z,2.03
2023-04-29T23:43:46.314Z,1.70
2023-04-29T23:46:14.737Z,3.10
2023-04-29T23:48:43.075Z,1.50
2023-04-29T23:51:11.387Z,2.13
2023-04-29T23:53:40.248Z,1.70
2023-04-29T23:56:09.072Z,1.47
2023-04-29T23:58:37.316Z,1.77
